createdAt,value
2017-08-22T00:00:36.069Z,10.16
2017-08-22T00:03:05.433Z,10.16
2017-08-22T00:05:35.173Z,10.11
2017-08-22T00:08:04.903Z,10.10
2017-08-22T00:10:34.637Z,10.11
2017-08-22T00:13:04.354Z,10.07
2017-08-22T00:15:34.089Z,10.03
2017-08-22T00:18:03.830Z,10.00
2017-08-22T00:20:33.544Z,9.94
2017-08-22T00:23:03.107Z,9.90
2017-08-22T00:25:32.809Z,9.88
2017-08-22T00:28:02.533Z,9.86
2017-08-22T00:30:32.263Z,9.85
2017-08-22T00:33:02.108Z,9.83
2017-08-22T00:35:31.841Z,9.80
2017-08-22T00:38:01.582Z,9.82
2017-08-22T00:40:31.300Z,9.77
2017-08-22T00:43:01.016Z,9.76
2017-08-22T00:45:30.773Z,9.76
2017-08-22T00:48:00.501Z,9.73
2017-08-22T00:50:30.259Z,9.69
2017-08-22T00:52:59.952Z,9.67
2017-08-22T00:55:29.686Z,9.66
2017-08-22T00:57:59.429Z,9.66
2017-08-22T01:00:29.149Z,9.65
2017-08-22T01:02:58.696Z,9.60
2017-08-22T01:05:28.417Z,9.56
2017-08-22T01:07:58.166Z,9.52
2017-08-22T01:10:27.932Z,9.50
2017-08-22T01:12:57.467Z,9.48
2017-08-22T01:15:27.197Z,9.46
2017-08-22T01:17:56.933Z,9.45
2017-08-22T01:20:26.306Z,9.43
2017-08-22T01:22:56.032Z,9.41
2017-08-22T01:25:25.781Z,9.39
2017-08-22T01:27:55.491Z,9.36
2017-08-22T01:30:25.226Z,9.34
2017-08-22T01:32:54.966Z,9.35
2017-08-22T01:35:24.701Z,9.33
2017-08-22T01:37:54.426Z,9.31
2017-08-22T01:40:24.028Z,9.31
2017-08-22T01:42:53.226Z,9.29
2017-08-22T01:45:22.996Z,9.25
2017-08-22T01:47:52.705Z,9.23
2017-08-22T01:50:22.445Z,9.22
2017-08-22T01:52:52.185Z,9.21
2017-08-22T01:55:21.987Z,9.20
2017-08-22T01:57:51.704Z,9.21
2017-08-22T02:00:21.473Z,9.17
2017-08-22T02:02:51.011Z,9.14
2017-08-22T02:05:20.603Z,9.11
2017-08-22T02:07:50.330Z,9.12
2017-08-22T02:10:20.068Z,9.08
2017-08-22T02:12:49.774Z,9.05
2017-08-22T02:15:19.561Z,9.03
2017-08-22T02:17:49.271Z,8.99
2017-08-22T02:20:19.037Z,8.99
2017-08-22T02:22:48.777Z,8.99
2017-08-22T02:25:18.583Z,8.98
2017-08-22T02:27:48.329Z,8.99
2017-08-22T02:30:18.080Z,9.00
2017-08-22T02:32:47.803Z,9.03
2017-08-22T02:35:17.574Z,8.97
2017-08-22T02:37:47.314Z,8.96
2017-08-22T02:40:17.099Z,8.93
2017-08-22T02:42:46.803Z,8.91
2017-08-22T02:45:16.555Z,8.88
2017-08-22T02:47:46.280Z,8.88
2017-08-22T02:50:16.046Z,8.88
2017-08-22T02:52:45.737Z,8.89
2017-08-22T02:55:15.518Z,8.88
2017-08-22T02:57:45.229Z,8.87
2017-08-22T03:00:15.011Z,8.85
2017-08-22T03:02:44.741Z,8.84
2017-08-22T03:05:14.332Z,8.82
2017-08-22T03:07:44.091Z,8.80
2017-08-22T03:10:14.518Z,8.77
2017-08-22T03:12:44.227Z,8.75
2017-08-22T03:15:14.008Z,8.74
2017-08-22T03:17:43.556Z,8.75
2017-08-22T03:20:13.365Z,8.72
2017-08-22T03:22:43.061Z,8.71
2017-08-22T03:25:12.826Z,8.72
2017-08-22T03:27:42.549Z,8.69
2017-08-22T03:30:12.290Z,8.69
2017-08-22T03:32:42.013Z,8.67
2017-08-22T03:35:11.771Z,8.69
2017-08-22T03:37:41.489Z,8.69
2017-08-22T03:40:11.304Z,8.66
2017-08-22T03:42:41.010Z,8.64
2017-08-22T03:45:10.780Z,8.61
2017-08-22T03:47:40.488Z,8.58
2017-08-22T03:50:10.264Z,8.57
2017-08-22T03:52:39.984Z,8.55
2017-08-22T03:55:09.737Z,8.53
2017-08-22T03:57:39.451Z,8.52
2017-08-22T04:00:09.222Z,8.52
2017-08-22T04:02:38.790Z,8.51
2017-08-22T04:05:08.581Z,8.51
2017-08-22T04:07:38.995Z,8.49
2017-08-22T04:10:08.768Z,8.49
2017-08-22T04:12:38.487Z,8.52
2017-08-22T04:15:08.247Z,8.53
2017-08-22T04:17:37.985Z,8.53
2017-08-22T04:20:07.747Z,8.55
2017-08-22T04:22:37.476Z,8.55
2017-08-22T04:25:07.256Z,8.58
2017-08-22T04:27:36.971Z,8.60
2017-08-22T04:30:06.729Z,8.62
2017-08-22T04:32:36.599Z,8.62
2017-08-22T04:35:06.363Z,8.64
2017-08-22T04:37:36.085Z,8.70
2017-08-22T04:40:05.846Z,8.72
2017-08-22T04:42:35.585Z,8.75
2017-08-22T04:45:05.182Z,8.79
2017-08-22T04:47:34.901Z,8.84
2017-08-22T04:50:04.717Z,8.87
2017-08-22T04:52:34.448Z,8.93
2017-08-22T04:55:04.217Z,8.99
2017-08-22T04:57:33.937Z,9.07
2017-08-22T05:00:03.709Z,9.13
2017-08-22T05:02:33.281Z,9.18
2017-08-22T05:05:03.053Z,9.26
2017-08-22T05:07:32.642Z,9.35
2017-08-22T05:10:02.405Z,9.44
2017-08-22T05:12:32.121Z,9.53
2017-08-22T05:15:01.964Z,9.62
2017-08-22T05:17:31.681Z,9.73
2017-08-22T05:20:01.437Z,9.84
2017-08-22T05:22:31.296Z,9.97
2017-08-22T05:25:01.068Z,10.09
2017-08-22T05:27:30.798Z,10.21
2017-08-22T05:30:00.547Z,10.36
2017-08-22T05:32:30.272Z,10.50
2017-08-22T05:35:00.102Z,10.63
2017-08-22T05:37:29.827Z,10.75
2017-08-22T05:39:59.564Z,10.87
2017-08-22T05:42:29.314Z,11.00
2017-08-22T05:44:59.183Z,11.13
2017-08-22T05:47:28.929Z,11.24
2017-08-22T05:49:58.657Z,11.38
2017-08-22T05:52:28.391Z,11.48
2017-08-22T05:54:58.115Z,11.57
2017-08-22T05:57:27.844Z,11.68
2017-08-22T05:59:57.565Z,11.82
2017-08-22T06:02:27.299Z,11.96
2017-08-22T06:04:57.045Z,12.04
2017-08-22T06:07:26.780Z,12.12
2017-08-22T06:09:56.523Z,12.25
2017-08-22T06:12:26.265Z,12.42
2017-08-22T06:14:56.050Z,12.55
2017-08-22T06:17:25.762Z,12.74
2017-08-22T06:19:55.540Z,12.89
2017-08-22T06:22:25.284Z,13.01
2017-08-22T06:24:55.037Z,13.14
2017-08-22T06:27:24.826Z,13.26
2017-08-22T06:29:54.619Z,13.35
2017-08-22T06:32:24.349Z,13.49
2017-08-22T06:34:54.291Z,13.63
2017-08-22T06:37:24.062Z,13.73
2017-08-22T06:39:53.845Z,13.86
2017-08-22T06:42:23.598Z,14.01
2017-08-22T06:44:53.357Z,14.10
2017-08-22T06:47:23.105Z,14.20
2017-08-22T06:49:52.872Z,14.32
2017-08-22T06:52:22.632Z,14.47
2017-08-22T06:54:52.585Z,14.58
2017-08-22T06:57:23.332Z,14.66
2017-08-22T06:59:55.135Z,14.82
2017-08-22T07:02:27.611Z,14.89
2017-08-22T07:05:00.092Z,15.02
2017-08-22T07:07:32.365Z,15.19
2017-08-22T07:10:03.967Z,15.28
2017-08-22T07:12:36.109Z,15.41
2017-08-22T07:15:08.705Z,15.53
2017-08-22T07:17:38.920Z,15.67
2017-08-22T07:20:09.145Z,15.75
2017-08-22T07:22:38.585Z,15.78
2017-08-22T07:25:40.904Z,15.96
2017-08-22T07:28:10.417Z,16.08
2017-08-22T07:30:39.866Z,16.21
2017-08-22T07:33:09.329Z,16.29
2017-08-22T07:35:38.787Z,16.32
2017-08-22T07:38:08.240Z,16.37
2017-08-22T07:40:37.717Z,16.47
2017-08-22T07:43:07.172Z,16.46
2017-08-22T07:45:36.679Z,16.59
2017-08-22T07:48:06.161Z,16.72
2017-08-22T07:50:35.696Z,16.88
2017-08-22T07:53:05.161Z,16.90
2017-08-22T07:55:34.610Z,16.91
2017-08-22T07:58:04.069Z,17.00
2017-08-22T08:00:33.562Z,17.18
2017-08-22T08:03:02.853Z,17.10
2017-08-22T08:05:32.320Z,17.27
2017-08-22T08:08:01.784Z,17.28
2017-08-22T08:10:31.282Z,17.54
2017-08-22T08:13:00.759Z,17.58
2017-08-22T08:15:30.200Z,17.64
2017-08-22T08:18:00.520Z,17.84
2017-08-22T08:20:30.012Z,17.80
2017-08-22T08:23:00.163Z,18.12
2017-08-22T08:25:29.656Z,18.31
2017-08-22T08:27:59.096Z,18.50
2017-08-22T08:30:28.557Z,18.70
2017-08-22T08:32:58.016Z,18.76
2017-08-22T08:35:27.489Z,18.96
2017-08-22T08:37:56.959Z,19.13
2017-08-22T08:40:26.427Z,19.29
2017-08-22T08:42:55.880Z,19.46
2017-08-22T08:45:25.383Z,19.54
2017-08-22T08:47:54.830Z,19.57
2017-08-22T08:50:24.309Z,19.59
2017-08-22T08:52:54.459Z,19.41
2017-08-22T08:55:23.926Z,19.59
2017-08-22T08:57:53.384Z,19.88
2017-08-22T09:00:22.866Z,20.12
2017-08-22T09:02:52.326Z,20.32
2017-08-22T09:05:21.808Z,20.47
2017-08-22T09:07:51.096Z,20.36
2017-08-22T09:10:20.613Z,20.43
2017-08-22T09:12:50.076Z,20.62
2017-08-22T09:15:19.853Z,20.35
2017-08-22T09:17:49.312Z,20.52
2017-08-22T09:20:18.809Z,20.50
2017-08-22T09:22:48.304Z,20.54
2017-08-22T09:25:17.872Z,20.84
2017-08-22T09:27:47.336Z,20.68
2017-08-22T09:30:16.827Z,20.84
2017-08-22T09:32:46.097Z,20.80
2017-08-22T09:35:15.645Z,20.87
2017-08-22T09:37:45.090Z,20.98
2017-08-22T09:40:14.572Z,21.00
2017-08-22T09:42:44.045Z,21.38
2017-08-22T09:45:13.653Z,21.69
2017-08-22T09:47:43.188Z,21.97
2017-08-22T09:50:12.721Z,22.18
2017-08-22T09:52:42.183Z,21.71
2017-08-22T09:55:11.670Z,21.95
2017-08-22T09:57:41.144Z,22.03
2017-08-22T10:00:10.637Z,21.70
2017-08-22T10:02:39.960Z,21.95
2017-08-22T10:05:09.465Z,22.31
2017-08-22T10:07:38.896Z,22.60
2017-08-22T10:10:08.400Z,22.36
2017-08-22T10:12:37.848Z,22.54
2017-08-22T10:15:07.377Z,22.43
2017-08-22T10:17:36.828Z,22.31
2017-08-22T10:20:06.340Z,22.94
2017-08-22T10:22:35.863Z,23.10
2017-08-22T10:25:05.343Z,22.56
2017-08-22T10:27:34.784Z,22.05
2017-08-22T10:30:04.367Z,22.41
2017-08-22T10:32:33.788Z,22.85
2017-08-22T10:35:03.282Z,22.98
2017-08-22T10:37:34.655Z,22.89
2017-08-22T10:40:04.784Z,22.82
2017-08-22T10:42:34.226Z,22.70
2017-08-22T10:45:03.713Z,23.26
2017-08-22T10:47:33.161Z,23.54
2017-08-22T10:50:02.649Z,23.60
2017-08-22T10:52:32.090Z,23.90
2017-08-22T10:55:01.573Z,24.15
2017-08-22T10:57:31.012Z,23.76
2017-08-22T11:00:00.464Z,23.96
2017-08-22T11:02:29.948Z,24.00
2017-08-22T11:04:59.404Z,24.10
2017-08-22T11:07:28.852Z,24.09
2017-08-22T11:09:58.308Z,24.15
2017-08-22T11:12:27.769Z,24.30
2017-08-22T11:14:57.235Z,24.04
2017-08-22T11:17:26.716Z,24.39
2017-08-22T11:19:56.168Z,24.63
2017-08-22T11:22:25.614Z,24.64
2017-08-22T11:24:55.071Z,24.14
2017-08-22T11:27:24.532Z,24.08
2017-08-22T11:29:53.988Z,24.24
2017-08-22T11:32:23.469Z,23.93
2017-08-22T11:34:53.281Z,23.82
2017-08-22T11:37:22.738Z,24.24
2017-08-22T11:39:54.077Z,24.43
2017-08-22T11:42:23.860Z,24.70
2017-08-22T11:44:53.357Z,24.48
2017-08-22T11:47:22.827Z,24.18
2017-08-22T11:49:52.265Z,24.32
2017-08-22T11:52:21.752Z,25.04
2017-08-22T11:54:51.206Z,23.80
2017-08-22T11:57:20.657Z,23.89
2017-08-22T11:59:50.103Z,23.80
2017-08-22T12:02:21.285Z,23.98
2017-08-22T12:04:51.054Z,24.54
2017-08-22T12:07:20.498Z,24.68
2017-08-22T12:09:50.104Z,24.53
2017-08-22T12:12:19.574Z,24.68
2017-08-22T12:14:49.031Z,24.50
2017-08-22T12:17:18.559Z,24.85
2017-08-22T12:19:47.824Z,24.28
2017-08-22T12:22:17.081Z,24.99
2017-08-22T12:24:51.149Z,25.24
2017-08-22T12:27:21.924Z,26.42
2017-08-22T12:29:51.374Z,28.17
2017-08-22T12:32:20.814Z,27.65
2017-08-22T12:34:50.258Z,27.03
2017-08-22T12:37:19.719Z,28.16
2017-08-22T12:39:49.162Z,28.60
2017-08-22T12:42:18.605Z,27.89
2017-08-22T12:44:48.072Z,28.94
2017-08-22T12:47:17.496Z,29.17
2017-08-22T12:49:46.947Z,28.97
2017-08-22T12:52:16.385Z,29.92
2017-08-22T12:54:45.833Z,29.22
2017-08-22T12:57:15.277Z,29.17
2017-08-22T12:59:44.733Z,29.16
2017-08-22T13:02:14.190Z,29.74
2017-08-22T13:04:43.620Z,29.27
2017-08-22T13:07:13.066Z,28.73
2017-08-22T13:09:42.517Z,28.34
2017-08-22T13:12:11.962Z,28.05
2017-08-22T13:14:41.486Z,28.86
2017-08-22T13:17:10.923Z,28.33
2017-08-22T13:19:40.386Z,29.04
2017-08-22T13:22:09.829Z,29.31
2017-08-22T13:24:39.280Z,30.15
2017-08-22T13:27:08.708Z,29.16
2017-08-22T13:29:38.151Z,28.96
2017-08-22T13:32:07.625Z,29.17
2017-08-22T13:34:37.107Z,28.47
2017-08-22T13:37:06.520Z,28.06
2017-08-22T13:39:35.956Z,28.62
2017-08-22T13:42:05.413Z,29.04
2017-08-22T13:44:34.849Z,28.53
2017-08-22T13:47:04.300Z,29.83
2017-08-22T13:49:34.432Z,29.45
2017-08-22T13:52:03.928Z,30.56
2017-08-22T13:54:33.399Z,30.85
2017-08-22T13:57:02.657Z,31.00
2017-08-22T13:59:31.929Z,30.74
2017-08-22T14:02:01.386Z,31.84
2017-08-22T14:04:30.832Z,33.65
2017-08-22T14:07:00.264Z,34.41
2017-08-22T14:09:29.721Z,30.78
2017-08-22T14:11:59.177Z,29.77
2017-08-22T14:14:28.616Z,28.93
2017-08-22T14:16:58.070Z,28.59
2017-08-22T14:19:27.534Z,29.18
2017-08-22T14:21:56.968Z,29.74
2017-08-22T14:24:26.413Z,29.62
2017-08-22T14:26:55.852Z,29.66
2017-08-22T14:29:25.297Z,28.48
2017-08-22T14:31:54.745Z,28.13
2017-08-22T14:34:24.192Z,27.80
2017-08-22T14:36:53.641Z,27.69
2017-08-22T14:39:22.920Z,26.94
2017-08-22T14:41:52.374Z,26.12
2017-08-22T14:44:21.808Z,26.72
2017-08-22T14:46:51.256Z,27.55
2017-08-22T14:49:20.809Z,28.20
2017-08-22T14:51:50.256Z,29.77
2017-08-22T14:54:19.697Z,29.70
2017-08-22T14:56:49.272Z,30.82
2017-08-22T14:59:18.713Z,30.13
2017-08-22T15:01:48.153Z,29.64
2017-08-22T15:04:17.415Z,30.10
2017-08-22T15:06:46.881Z,29.60
2017-08-22T15:09:16.325Z,29.99
2017-08-22T15:11:45.794Z,28.61
2017-08-22T15:14:15.230Z,29.86
2017-08-22T15:16:44.697Z,31.15
2017-08-22T15:19:14.124Z,31.67
2017-08-22T15:21:43.567Z,31.86
2017-08-22T15:24:13.022Z,31.86
2017-08-22T15:26:42.465Z,30.25
2017-08-22T15:29:11.915Z,30.45
2017-08-22T15:31:41.361Z,31.06
2017-08-22T15:34:10.828Z,30.98
2017-08-22T15:36:40.296Z,30.31
2017-08-22T15:39:09.729Z,28.44
2017-08-22T15:41:39.184Z,28.32
2017-08-22T15:44:08.610Z,29.48
2017-08-22T15:46:38.066Z,29.61
2017-08-22T15:49:07.529Z,28.76
2017-08-22T15:51:36.993Z,27.87
2017-08-22T15:54:06.463Z,27.10
2017-08-22T15:56:36.143Z,27.94
2017-08-22T15:59:11.769Z,28.49
2017-08-22T16:01:43.066Z,28.54
2017-08-22T16:04:13.063Z,28.52
2017-08-22T16:06:42.739Z,29.43
2017-08-22T16:09:12.673Z,28.78
2017-08-22T16:11:42.494Z,28.60
2017-08-22T16:14:12.509Z,28.68
2017-08-22T16:16:41.948Z,28.32
2017-08-22T16:19:11.389Z,28.42
2017-08-22T16:21:40.836Z,27.82
2017-08-22T16:24:10.298Z,27.58
2017-08-22T16:26:39.728Z,27.79
2017-08-22T16:29:09.168Z,26.57
2017-08-22T16:31:38.614Z,26.25
2017-08-22T16:34:08.077Z,25.50
2017-08-22T16:36:37.355Z,25.24
2017-08-22T16:39:06.799Z,25.07
2017-08-22T16:41:36.208Z,25.34
2017-08-22T16:44:05.647Z,25.01
2017-08-22T16:46:35.098Z,25.15
2017-08-22T16:49:04.548Z,25.33
2017-08-22T16:51:34.000Z,25.50
2017-08-22T16:54:03.436Z,25.47
2017-08-22T16:56:32.886Z,25.25
2017-08-22T16:59:02.341Z,24.77
2017-08-22T17:01:31.845Z,23.97
2017-08-22T17:04:01.288Z,23.83
2017-08-22T17:06:30.725Z,23.63
2017-08-22T17:09:00.169Z,23.64
2017-08-22T17:11:29.613Z,23.17
2017-08-22T17:13:59.069Z,23.34
2017-08-22T17:16:28.518Z,23.07
2017-08-22T17:18:57.946Z,23.19
2017-08-22T17:21:27.385Z,23.12
2017-08-22T17:23:56.854Z,22.89
2017-08-22T17:26:26.286Z,22.57
2017-08-22T17:28:55.745Z,22.36
2017-08-22T17:31:25.209Z,22.16
2017-08-22T17:33:54.633Z,22.01
2017-08-22T17:36:24.109Z,21.93
2017-08-22T17:38:53.588Z,21.64
2017-08-22T17:41:23.014Z,21.40
2017-08-22T17:43:52.455Z,21.21
2017-08-22T17:46:21.901Z,21.01
2017-08-22T17:48:51.366Z,20.72
2017-08-22T17:51:21.505Z,20.51
2017-08-22T17:53:50.935Z,20.25
2017-08-22T17:56:20.403Z,20.03
2017-08-22T17:58:49.859Z,19.84
2017-08-22T18:01:19.313Z,19.60
2017-08-22T18:03:48.875Z,19.35
2017-08-22T18:06:18.351Z,19.13
2017-08-22T18:08:47.780Z,18.96
2017-08-22T18:11:17.246Z,18.85
2017-08-22T18:13:46.672Z,18.67
2017-08-22T18:16:16.121Z,18.55
2017-08-22T18:18:45.573Z,18.35
2017-08-22T18:21:15.028Z,18.26
2017-08-22T18:23:44.476Z,18.27
2017-08-22T18:26:13.935Z,18.21
2017-08-22T18:28:43.402Z,18.19
2017-08-22T18:31:12.853Z,18.17
2017-08-22T18:33:42.304Z,18.09
2017-08-22T18:36:11.749Z,18.00
2017-08-22T18:38:41.216Z,17.96
2017-08-22T18:41:10.641Z,17.88
2017-08-22T18:43:40.096Z,17.66
2017-08-22T18:46:09.541Z,17.52
2017-08-22T18:48:39.000Z,17.32
2017-08-22T18:51:08.441Z,17.16
2017-08-22T18:53:37.897Z,17.04
2017-08-22T18:56:07.408Z,16.90
2017-08-22T18:58:36.877Z,16.72
2017-08-22T19:01:06.304Z,16.62
2017-08-22T19:03:35.768Z,16.53
2017-08-22T19:06:05.247Z,16.42
2017-08-22T19:08:34.680Z,16.33
2017-08-22T19:11:04.147Z,16.26
2017-08-22T19:13:33.589Z,16.18
2017-08-22T19:16:03.033Z,16.07
2017-08-22T19:18:32.489Z,15.98
2017-08-22T19:21:01.941Z,15.90
2017-08-22T19:23:31.402Z,15.81
2017-08-22T19:26:00.849Z,15.72
2017-08-22T19:28:30.290Z,15.64
2017-08-22T19:30:59.752Z,15.53
2017-08-22T19:33:29.200Z,15.44
2017-08-22T19:35:58.662Z,15.35
2017-08-22T19:38:28.168Z,15.25
2017-08-22T19:40:57.605Z,15.18
2017-08-22T19:43:27.058Z,15.10
2017-08-22T19:45:56.498Z,15.06
2017-08-22T19:48:25.965Z,15.00
2017-08-22T19:50:55.433Z,14.93
2017-08-22T19:53:24.865Z,14.88
2017-08-22T19:55:54.321Z,14.83
2017-08-22T19:58:23.885Z,14.79
2017-08-22T20:00:53.355Z,14.75
2017-08-22T20:03:22.814Z,14.67
2017-08-22T20:05:52.279Z,14.59
2017-08-22T20:08:21.718Z,14.54
2017-08-22T20:10:51.165Z,14.46
2017-08-22T20:13:20.949Z,14.40
2017-08-22T20:15:50.705Z,14.33
2017-08-22T20:18:20.445Z,14.27
2017-08-22T20:20:50.157Z,14.20
2017-08-22T20:23:19.629Z,14.12
2017-08-22T20:25:49.072Z,14.06
2017-08-22T20:28:18.836Z,14.04
2017-08-22T20:30:48.567Z,13.98
2017-08-22T20:33:18.301Z,13.93
2017-08-22T20:35:48.044Z,13.86
2017-08-22T20:38:17.811Z,13.79
2017-08-22T20:40:47.532Z,13.74
2017-08-22T20:43:17.314Z,13.68
2017-08-22T20:45:47.070Z,13.64
2017-08-22T20:48:16.791Z,13.60
2017-08-22T20:50:46.591Z,13.55
2017-08-22T20:53:16.345Z,13.51
2017-08-22T20:55:46.072Z,13.48
2017-08-22T20:58:15.805Z,13.45
2017-08-22T21:00:45.560Z,13.44
2017-08-22T21:03:15.365Z,13.42
2017-08-22T21:05:45.104Z,13.43
2017-08-22T21:08:14.852Z,13.41
2017-08-22T21:10:44.578Z,13.40
2017-08-22T21:13:14.307Z,13.41
2017-08-22T21:15:44.046Z,13.41
2017-08-22T21:18:13.764Z,13.44
2017-08-22T21:20:43.497Z,13.46
2017-08-22T21:23:13.229Z,13.48
2017-08-22T21:25:42.994Z,13.52
2017-08-22T21:28:12.781Z,13.55
2017-08-22T21:30:42.519Z,13.56
2017-08-22T21:33:12.262Z,13.58
2017-08-22T21:35:42.017Z,13.59
2017-08-22T21:38:11.753Z,13.61
2017-08-22T21:40:41.344Z,13.65
2017-08-22T21:43:11.076Z,13.70
2017-08-22T21:45:40.805Z,13.72
2017-08-22T21:48:10.536Z,13.78
2017-08-22T21:50:40.272Z,13.81
2017-08-22T21:53:10.251Z,13.84
2017-08-22T21:55:39.980Z,13.86
2017-08-22T21:58:09.736Z,13.88
2017-08-22T22:00:39.472Z,13.90
2017-08-22T22:03:09.049Z,13.90
2017-08-22T22:05:38.768Z,13.89
2017-08-22T22:08:08.512Z,13.91
2017-08-22T22:10:37.954Z,13.91
2017-08-22T22:13:07.707Z,13.92
2017-08-22T22:15:37.455Z,13.93
2017-08-22T22:18:06.889Z,13.94
2017-08-22T22:20:36.624Z,13.95
2017-08-22T22:23:06.374Z,13.98
2017-08-22T22:25:36.140Z,14.00
2017-08-22T22:28:05.860Z,14.03
2017-08-22T22:30:35.600Z,14.05
2017-08-22T22:33:05.329Z,14.04
2017-08-22T22:35:34.765Z,14.04
2017-08-22T22:38:04.497Z,14.03
2017-08-22T22:40:34.228Z,14.02
2017-08-22T22:43:03.961Z,14.02
2017-08-22T22:45:33.701Z,14.02
2017-08-22T22:48:03.448Z,14.02
2017-08-22T22:50:32.883Z,14.02
2017-08-22T22:53:02.621Z,14.03
2017-08-22T22:55:32.368Z,14.03
2017-08-22T22:58:02.117Z,14.02
2017-08-22T23:00:31.888Z,14.02
2017-08-22T23:03:01.486Z,14.03
2017-08-22T23:05:30.927Z,14.03
2017-08-22T23:08:00.664Z,14.02
2017-08-22T23:10:30.124Z,14.02
2017-08-22T23:12:59.580Z,13.98
2017-08-22T23:15:29.307Z,13.93
2017-08-22T23:17:58.866Z,13.89
2017-08-22T23:20:28.608Z,13.80
2017-08-22T23:22:58.334Z,13.75
2017-08-22T23:25:28.063Z,13.65
2017-08-22T23:27:57.780Z,13.58
2017-08-22T23:30:27.528Z,13.55
2017-08-22T23:32:57.253Z,13.51
2017-08-22T23:35:27.007Z,13.45
2017-08-22T23:37:56.717Z,13.41
2017-08-22T23:40:26.478Z,13.37
2017-08-22T23:42:59.927Z,13.29
2017-08-22T23:45:29.685Z,13.28
2017-08-22T23:47:59.388Z,13.24
2017-08-22T23:50:29.133Z,13.18
2017-08-22T23:52:58.873Z,13.14
2017-08-22T23:55:28.582Z,13.07
2017-08-22T23:57:58.319Z,13.00
